createdAt,value
2023-05-12T00:02:23.173Z,13.45
2023-05-12T00:04:53.168Z,13.44
2023-05-12T00:07:22.639Z,13.45
2023-05-12T00:09:51.486Z,13.44
2023-05-12T00:12:20.007Z,13.46
2023-05-12T00:14:49.215Z,13.45
2023-05-12T00:17:17.613Z,13.48
2023-05-12T00:19:46.935Z,13.51
2023-05-12T00:22:17.902Z,13.52
2023-05-12T00:24:46.273Z,13.52
2023-05-12T00:27:14.756Z,13.52
2023-05-12T00:29:43.211Z,13.59
2023-05-12T00:32:11.668Z,13.61
2023-05-12T00:34:40.009Z,13.61
2023-05-12T00:37:08.616Z,13.63
2023-05-12T00:39:39.040Z,13.65
2023-05-12T00:42:08.101Z,13.67
2023-05-12T00:44:36.768Z,13.68
2023-05-12T00:47:06.348Z,13.70
2023-05-12T00:49:34.698Z,13.72
2023-05-12T00:52:04.852Z,13.76
2023-05-12T00:54:33.566Z,13.73
2023-05-12T00:57:03.593Z,13.75
2023-05-12T00:59:32.115Z,13.76
2023-05-12T01:02:00.727Z,13.76
2023-05-12T01:04:29.835Z,13.78
2023-05-12T01:07:05.381Z,13.80
2023-05-12T01:09:33.747Z,13.78
2023-05-12T01:12:03.544Z,13.80
2023-05-12T01:14:31.981Z,13.81
2023-05-12T01:17:03.841Z,13.83
2023-05-12T01:19:42.329Z,13.83
2023-05-12T01:22:15.215Z,13.82
2023-05-12T01:24:49.754Z,13.81
2023-05-12T01:27:21.967Z,13.84
2023-05-12T01:29:51.189Z,13.85
2023-05-12T01:32:20.396Z,13.84
2023-05-12T01:34:49.752Z,13.83
2023-05-12T01:37:18.232Z,13.84
2023-05-12T01:39:46.724Z,13.82
2023-05-12T01:42:15.851Z,13.85
2023-05-12T01:44:45.767Z,13.86
2023-05-12T01:47:15.927Z,13.85
2023-05-12T01:49:44.495Z,13.85
2023-05-12T01:52:13.094Z,13.87
2023-05-12T01:54:41.879Z,13.90
2023-05-12T01:57:11.378Z,13.91
2023-05-12T01:59:39.729Z,13.90
2023-05-12T02:02:10.503Z,13.88
2023-05-12T02:04:38.881Z,13.86
2023-05-12T02:07:07.988Z,13.83
2023-05-12T02:09:36.288Z,13.84
2023-05-12T02:12:07.476Z,13.85
2023-05-12T02:14:35.927Z,13.84
2023-05-12T02:17:04.799Z,13.85
2023-05-12T02:19:34.530Z,13.85
2023-05-12T02:22:03.075Z,13.84
2023-05-12T02:24:31.832Z,13.82
2023-05-12T02:27:01.017Z,13.82
2023-05-12T02:29:29.738Z,13.80
2023-05-12T02:32:00.119Z,13.81
2023-05-12T02:34:28.626Z,13.84
2023-05-12T02:36:58.388Z,13.85
2023-05-12T02:39:27.376Z,13.85
2023-05-12T02:41:56.078Z,13.87
2023-05-12T02:44:25.003Z,13.86
2023-05-12T02:46:53.694Z,13.89
2023-05-12T02:49:22.501Z,13.91
2023-05-12T02:51:51.006Z,13.91
2023-05-12T02:54:21.029Z,13.90
2023-05-12T02:56:51.365Z,13.92
2023-05-12T02:59:19.975Z,13.97
2023-05-12T03:01:48.311Z,14.02
2023-05-12T03:04:18.126Z,14.05
2023-05-12T03:06:46.860Z,14.08
2023-05-12T03:09:15.915Z,14.11
2023-05-12T03:11:45.843Z,14.12
2023-05-12T03:14:14.164Z,14.12
2023-05-12T03:16:42.637Z,14.09
2023-05-12T03:19:11.708Z,14.07
2023-05-12T03:21:40.438Z,14.04
2023-05-12T03:24:10.120Z,14.04
2023-05-12T03:26:38.618Z,14.03
2023-05-12T03:29:09.705Z,14.05
2023-05-12T03:31:39.058Z,14.08
2023-05-12T03:34:07.588Z,14.12
2023-05-12T03:36:37.175Z,14.14
2023-05-12T03:39:05.818Z,14.20
2023-05-12T03:41:34.272Z,14.20
2023-05-12T03:44:03.046Z,14.21
2023-05-12T03:46:33.133Z,14.22
2023-05-12T03:49:01.868Z,14.24
2023-05-12T03:51:30.633Z,14.23
2023-05-12T03:53:59.209Z,14.25
2023-05-12T03:56:28.533Z,14.25
2023-05-12T03:58:58.313Z,14.26
2023-05-12T04:01:27.196Z,14.30
2023-05-12T04:03:57.296Z,14.32
2023-05-12T04:06:26.160Z,14.29
2023-05-12T04:08:54.643Z,14.29
2023-05-12T04:11:23.638Z,14.30
2023-05-12T04:13:52.346Z,14.30
2023-05-12T04:16:21.060Z,14.31
2023-05-12T04:18:50.473Z,14.35
2023-05-12T04:21:20.948Z,14.38
2023-05-12T04:23:53.837Z,14.40
2023-05-12T04:26:23.208Z,14.41
2023-05-12T04:28:53.283Z,14.45
2023-05-12T04:31:22.177Z,14.46
2023-05-12T04:33:51.993Z,14.50
2023-05-12T04:36:22.883Z,14.55
2023-05-12T04:38:51.621Z,14.57
2023-05-12T04:41:19.981Z,14.58
2023-05-12T04:46:20.848Z,14.61
2023-05-12T04:48:49.489Z,14.64
2023-05-12T04:51:17.913Z,14.67
2023-05-12T04:53:47.695Z,14.68
2023-05-12T04:56:16.004Z,14.70
2023-05-12T04:58:44.488Z,14.73
2023-05-12T05:01:13.734Z,14.76
2023-05-12T05:03:42.351Z,14.75
2023-05-12T05:06:10.731Z,14.78
2023-05-12T05:08:39.003Z,14.82
2023-05-12T05:11:08.771Z,14.84
2023-05-12T05:13:37.480Z,14.84
2023-05-12T05:16:06.890Z,14.87
2023-05-12T05:18:35.370Z,14.86
2023-05-12T05:21:03.825Z,14.88
2023-05-12T05:23:32.158Z,14.91
2023-05-12T05:26:00.467Z,14.92
2023-05-12T05:28:30.979Z,14.95
2023-05-12T05:30:59.409Z,14.97
2023-05-12T05:33:28.190Z,15.01
2023-05-12T05:35:57.338Z,15.05
2023-05-12T05:38:26.182Z,15.10
2023-05-12T05:40:54.928Z,15.12
2023-05-12T05:43:23.564Z,15.18
2023-05-12T05:45:53.373Z,15.27
2023-05-12T05:48:22.367Z,15.33
2023-05-12T05:50:51.901Z,15.43
2023-05-12T05:53:21.102Z,15.55
2023-05-12T05:55:49.854Z,15.63
2023-05-12T05:58:18.537Z,15.71
2023-05-12T06:00:47.370Z,15.75
2023-05-12T06:03:17.322Z,15.82
2023-05-12T06:05:45.861Z,15.87
2023-05-12T06:08:14.243Z,15.91
2023-05-12T06:10:42.797Z,15.93
2023-05-12T06:13:11.308Z,15.93
2023-05-12T06:15:39.887Z,15.92
2023-05-12T06:18:08.971Z,15.93
2023-05-12T06:20:38.907Z,15.98
2023-05-12T06:23:07.399Z,16.02
2023-05-12T06:25:35.725Z,16.03
2023-05-12T06:28:04.146Z,16.05
2023-05-12T06:30:33.849Z,16.07
2023-05-12T06:33:02.739Z,16.09
2023-05-12T06:35:31.222Z,16.09
2023-05-12T06:38:00.986Z,16.12
2023-05-12T06:40:29.534Z,16.13
2023-05-12T06:42:58.202Z,16.16
2023-05-12T06:45:28.151Z,16.15
2023-05-12T06:47:57.714Z,16.20
2023-05-12T06:50:26.293Z,16.22
2023-05-12T06:52:54.835Z,16.26
2023-05-12T06:55:24.881Z,16.31
2023-05-12T06:57:56.145Z,16.33
2023-05-12T07:00:24.992Z,16.36
2023-05-12T07:02:53.752Z,16.43
2023-05-12T07:05:22.987Z,16.50
2023-05-12T07:07:52.203Z,16.56
2023-05-12T07:10:22.060Z,16.66
2023-05-12T07:12:52.094Z,16.77
2023-05-12T07:15:21.228Z,16.88
2023-05-12T07:17:49.983Z,17.03
2023-05-12T07:20:18.652Z,17.22
2023-05-12T07:22:47.152Z,17.41
2023-05-12T07:25:16.068Z,17.59
2023-05-12T07:27:44.631Z,17.77
2023-05-12T07:30:15.141Z,17.98
2023-05-12T07:32:44.097Z,18.13
2023-05-12T07:35:12.623Z,18.26
2023-05-12T07:37:42.152Z,18.35
2023-05-12T07:40:11.034Z,18.40
2023-05-12T07:42:40.000Z,18.48
2023-05-12T07:45:10.486Z,18.58
2023-05-12T07:47:41.052Z,18.71
2023-05-12T07:50:11.307Z,18.81
2023-05-12T07:52:49.090Z,18.83
2023-05-12T07:55:18.764Z,18.82
2023-05-12T07:57:47.387Z,18.83
2023-05-12T08:00:16.881Z,18.91
2023-05-12T08:02:47.313Z,18.98
2023-05-12T08:05:16.528Z,19.07
2023-05-12T08:07:45.231Z,19.17
2023-05-12T08:10:14.805Z,19.32
2023-05-12T08:12:43.997Z,19.49
2023-05-12T08:15:12.501Z,19.69
2023-05-12T08:17:40.859Z,19.86
2023-05-12T08:20:12.564Z,20.06
2023-05-12T08:22:41.225Z,20.19
2023-05-12T08:25:12.386Z,20.35
2023-05-12T08:27:41.299Z,20.56
2023-05-12T08:30:11.049Z,20.73
2023-05-12T08:32:39.558Z,20.82
2023-05-12T08:35:08.622Z,20.92
2023-05-12T08:37:38.428Z,21.07
2023-05-12T08:40:16.829Z,21.19
2023-05-12T08:42:50.967Z,21.28
2023-05-12T08:45:20.703Z,21.35
2023-05-12T08:47:49.269Z,21.44
2023-05-12T08:50:20.180Z,21.55
2023-05-12T08:52:53.014Z,21.60
2023-05-12T08:55:27.402Z,21.64
2023-05-12T08:57:59.643Z,21.59
2023-05-12T09:00:31.211Z,21.62
2023-05-12T09:03:02.408Z,21.76
2023-05-12T09:05:31.934Z,21.80
2023-05-12T09:08:02.404Z,21.89
2023-05-12T09:10:34.993Z,21.97
2023-05-12T09:13:07.538Z,22.02
2023-05-12T09:15:40.223Z,22.14
2023-05-12T09:18:08.679Z,22.27
2023-05-12T09:20:37.288Z,22.44
2023-05-12T09:23:17.162Z,22.46
2023-05-12T09:25:47.136Z,22.53
2023-05-12T09:28:16.740Z,22.58
2023-05-12T09:30:44.993Z,22.56
2023-05-12T09:33:14.846Z,22.61
2023-05-12T09:35:44.776Z,22.66
2023-05-12T09:38:17.597Z,22.72
2023-05-12T09:40:47.261Z,22.84
2023-05-12T09:43:17.558Z,22.98
2023-05-12T09:45:47.721Z,23.24
2023-05-12T09:48:16.406Z,23.43
2023-05-12T09:50:48.212Z,23.56
2023-05-12T09:53:20.652Z,23.66
2023-05-12T09:55:50.590Z,23.71
2023-05-12T09:58:21.793Z,23.72
2023-05-12T10:01:17.917Z,23.69
2023-05-12T10:03:42.259Z,23.56
2023-05-12T10:06:16.204Z,23.45
2023-05-12T10:08:50.457Z,23.34
2023-05-12T10:11:19.585Z,23.38
2023-05-12T10:13:48.499Z,23.43
2023-05-12T10:16:17.800Z,23.47
2023-05-12T10:18:46.757Z,23.55
2023-05-12T10:21:17.476Z,23.67
2023-05-12T10:23:48.277Z,23.78
2023-05-12T10:26:17.949Z,23.87
2023-05-12T10:28:47.340Z,23.92
2023-05-12T10:31:16.330Z,23.95
2023-05-12T10:33:44.721Z,24.01
2023-05-12T10:36:20.460Z,24.04
2023-05-12T10:38:51.249Z,24.07
2023-05-12T10:41:31.780Z,24.07
2023-05-12T10:44:00.664Z,24.14
2023-05-12T10:46:30.568Z,24.18
2023-05-12T10:49:03.474Z,24.23
2023-05-12T10:51:34.159Z,24.28
2023-05-12T10:54:06.503Z,24.42
2023-05-12T10:56:44.863Z,24.60
2023-05-12T10:59:24.782Z,24.98
2023-05-12T11:02:03.930Z,25.55
2023-05-12T11:04:43.420Z,26.13
2023-05-12T11:07:14.325Z,26.49
2023-05-12T11:09:57.635Z,26.72
2023-05-12T11:12:37.134Z,26.81
2023-05-12T11:15:08.217Z,26.87
2023-05-12T11:17:41.162Z,26.85
2023-05-12T11:20:11.076Z,26.74
2023-05-12T11:22:44.856Z,26.54
2023-05-12T11:25:16.063Z,26.47
2023-05-12T11:27:51.101Z,26.36
2023-05-12T11:30:20.034Z,26.19
2023-05-12T11:32:48.733Z,26.12
2023-05-12T11:35:20.545Z,26.30
2023-05-12T11:37:49.179Z,26.61
2023-05-12T11:40:22.485Z,26.94
2023-05-12T11:42:54.766Z,27.33
2023-05-12T11:45:29.291Z,27.53
2023-05-12T11:48:08.948Z,27.77
2023-05-12T11:50:40.746Z,28.12
2023-05-12T11:53:14.945Z,28.31
2023-05-12T11:55:52.207Z,28.48
2023-05-12T11:58:22.920Z,28.78
2023-05-12T12:00:51.675Z,29.07
2023-05-12T12:03:20.787Z,29.26
2023-05-12T12:06:01.092Z,29.58
2023-05-12T12:08:29.670Z,29.85
2023-05-12T12:11:01.966Z,30.05
2023-05-12T12:13:31.839Z,30.39
2023-05-12T12:16:00.255Z,30.63
2023-05-12T12:18:28.791Z,30.80
2023-05-12T12:20:57.690Z,30.95
2023-05-12T12:23:26.255Z,31.16
2023-05-12T12:25:57.781Z,31.47
2023-05-12T12:28:27.778Z,31.77
2023-05-12T12:30:56.291Z,32.05
2023-05-12T12:33:24.668Z,31.69
2023-05-12T12:35:53.818Z,31.22
2023-05-12T12:38:23.734Z,31.50
2023-05-12T12:40:52.728Z,32.12
2023-05-12T12:43:22.073Z,32.77
2023-05-12T12:45:55.055Z,33.21
2023-05-12T12:48:23.758Z,33.49
2023-05-12T12:50:53.790Z,33.83
2023-05-12T12:53:22.788Z,34.31
2023-05-12T12:55:51.564Z,34.67
2023-05-12T12:58:21.703Z,34.97
2023-05-12T13:00:53.600Z,35.19
2023-05-12T13:03:23.327Z,35.49
2023-05-12T13:05:54.486Z,35.80
2023-05-12T13:08:24.570Z,36.16
2023-05-12T13:10:53.417Z,36.07
2023-05-12T13:13:24.572Z,36.16
2023-05-12T13:15:55.303Z,36.27
2023-05-12T13:18:23.868Z,35.38
2023-05-12T13:20:52.822Z,34.25
2023-05-12T13:23:21.769Z,33.27
2023-05-12T13:25:50.496Z,32.42
2023-05-12T13:28:19.198Z,31.84
2023-05-12T13:30:47.918Z,31.38
2023-05-12T13:33:17.744Z,31.47
2023-05-12T13:35:46.672Z,31.43
2023-05-12T13:38:15.304Z,31.10
2023-05-12T13:40:43.689Z,30.79
2023-05-12T13:43:12.325Z,30.52
2023-05-12T13:45:40.671Z,30.29
2023-05-12T13:48:09.413Z,30.29
2023-05-12T13:50:39.227Z,30.53
2023-05-12T13:53:07.843Z,31.72
2023-05-12T13:55:40.855Z,33.59
2023-05-12T13:58:09.951Z,35.12
2023-05-12T14:00:38.863Z,36.24
2023-05-12T14:03:08.086Z,36.85
2023-05-12T14:05:37.973Z,36.00
2023-05-12T14:08:06.730Z,34.65
2023-05-12T14:10:36.112Z,34.09
2023-05-12T14:13:05.727Z,33.40
2023-05-12T14:15:48.080Z,32.45
2023-05-12T14:18:17.787Z,31.50
2023-05-12T14:20:48.032Z,30.80
2023-05-12T14:23:17.291Z,30.27
2023-05-12T14:25:46.181Z,29.89
2023-05-12T14:28:14.731Z,30.05
2023-05-12T14:30:45.286Z,29.98
2023-05-12T14:33:14.124Z,29.90
2023-05-12T14:35:44.771Z,30.76
2023-05-12T14:38:17.919Z,32.61
2023-05-12T14:40:49.229Z,34.44
2023-05-12T14:43:17.863Z,36.09
2023-05-12T14:45:54.285Z,37.02
2023-05-12T14:48:27.337Z,37.82
2023-05-12T14:50:56.470Z,38.58
2023-05-12T14:53:26.687Z,39.31
2023-05-12T14:55:55.382Z,40.00
2023-05-12T14:58:24.600Z,40.56
2023-05-12T15:00:53.829Z,40.74
2023-05-12T15:03:23.090Z,41.03
2023-05-12T15:08:23.107Z,40.10
2023-05-12T15:10:53.266Z,39.94
2023-05-12T15:13:22.817Z,38.83
2023-05-12T15:15:55.185Z,36.85
2023-05-12T15:18:25.542Z,35.16
2023-05-12T15:20:59.428Z,33.81
2023-05-12T15:23:28.030Z,33.03
2023-05-12T15:25:59.361Z,34.49
2023-05-12T15:28:28.614Z,36.24
2023-05-12T15:30:57.847Z,37.52
2023-05-12T15:33:26.798Z,38.51
2023-05-12T15:35:55.294Z,39.36
2023-05-12T15:38:23.752Z,39.96
2023-05-12T15:40:52.998Z,40.45
2023-05-12T15:43:23.272Z,40.97
2023-05-12T15:45:51.822Z,41.49
2023-05-12T15:48:20.304Z,41.84
2023-05-12T15:50:49.181Z,41.97
2023-05-12T15:53:17.485Z,40.85
2023-05-12T15:55:45.871Z,40.17
2023-05-12T15:58:15.253Z,40.71
2023-05-12T16:00:45.373Z,41.44
2023-05-12T16:03:13.810Z,41.88
2023-05-12T16:05:42.640Z,42.38
2023-05-12T16:08:11.206Z,42.60
2023-05-12T16:10:39.564Z,42.65
2023-05-12T16:13:08.018Z,42.77
2023-05-12T16:15:36.890Z,42.48
2023-05-12T16:18:10.892Z,42.14
2023-05-12T16:20:41.738Z,42.06
2023-05-12T16:23:10.657Z,42.01
2023-05-12T16:25:39.178Z,41.89
2023-05-12T16:28:07.636Z,41.82
2023-05-12T16:30:35.998Z,41.78
2023-05-12T16:33:04.381Z,41.96
2023-05-12T16:35:34.523Z,42.07
2023-05-12T16:38:03.361Z,42.17
2023-05-12T16:40:32.622Z,41.93
2023-05-12T16:43:01.192Z,41.47
2023-05-12T16:45:29.506Z,40.30
2023-05-12T16:47:58.319Z,39.07
2023-05-12T16:50:27.016Z,39.13
2023-05-12T16:52:56.783Z,39.47
2023-05-12T16:55:26.940Z,39.52
2023-05-12T16:57:55.482Z,39.43
2023-05-12T17:00:45.698Z,38.85
2023-05-12T17:03:14.351Z,38.34
2023-05-12T17:05:44.991Z,38.36
2023-05-12T17:08:15.765Z,38.36
2023-05-12T17:10:46.299Z,38.15
2023-05-12T17:13:17.544Z,37.90
2023-05-12T17:15:46.987Z,37.53
2023-05-12T17:18:15.999Z,37.24
2023-05-12T17:20:44.414Z,37.17
2023-05-12T17:23:14.452Z,37.19
2023-05-12T17:25:43.450Z,37.22
2023-05-12T17:28:12.328Z,36.74
2023-05-12T17:30:45.023Z,35.98
2023-05-12T17:33:15.511Z,35.38
2023-05-12T17:35:53.597Z,35.41
2023-05-12T17:38:34.418Z,35.60
2023-05-12T17:41:05.091Z,35.72
2023-05-12T17:43:33.544Z,35.84
2023-05-12T17:46:02.473Z,35.91
2023-05-12T17:48:33.239Z,36.02
2023-05-12T17:51:03.490Z,35.95
2023-05-12T17:53:34.077Z,35.68
2023-05-12T17:56:03.094Z,35.34
2023-05-12T17:58:31.720Z,34.99
2023-05-12T18:01:00.767Z,34.82
2023-05-12T18:03:29.266Z,34.55
2023-05-12T18:05:58.063Z,34.28
2023-05-12T18:08:27.237Z,34.06
2023-05-12T18:10:57.757Z,33.85
2023-05-12T18:13:26.339Z,33.62
2023-05-12T18:15:57.001Z,33.48
2023-05-12T18:18:26.382Z,33.28
2023-05-12T18:20:54.987Z,32.96
2023-05-12T18:23:23.747Z,32.67
2023-05-12T18:25:52.874Z,32.22
2023-05-12T18:28:25.856Z,31.61
2023-05-12T18:30:56.250Z,30.91
2023-05-12T18:33:29.514Z,30.33
2023-05-12T18:36:01.047Z,29.55
2023-05-12T18:38:32.536Z,28.62
2023-05-12T18:41:01.144Z,27.67
2023-05-12T18:43:44.236Z,26.72
2023-05-12T18:46:13.800Z,25.97
2023-05-12T18:48:43.581Z,25.38
2023-05-12T18:51:12.429Z,24.86
2023-05-12T18:53:43.821Z,24.39
2023-05-12T18:56:14.356Z,23.98
2023-05-12T18:58:44.477Z,23.61
2023-05-12T19:01:12.914Z,23.26
2023-05-12T19:03:44.574Z,22.93
2023-05-12T19:06:14.985Z,22.64
2023-05-12T19:08:44.583Z,22.36
2023-05-12T19:11:12.939Z,22.05
2023-05-12T19:13:45.561Z,21.77
2023-05-12T19:16:15.472Z,21.50
2023-05-12T19:18:44.332Z,21.25
2023-05-12T19:21:13.482Z,20.94
2023-05-12T19:23:43.987Z,20.70
2023-05-12T19:26:13.056Z,20.48
2023-05-12T19:28:44.026Z,20.29
2023-05-12T19:31:15.246Z,20.11
2023-05-12T19:33:43.919Z,19.95
2023-05-12T19:36:12.808Z,19.82
2023-05-12T19:38:43.694Z,19.68
2023-05-12T19:41:12.541Z,19.55
2023-05-12T19:43:41.426Z,19.41
2023-05-12T19:46:12.421Z,19.27
2023-05-12T19:48:42.325Z,19.16
2023-05-12T19:51:11.378Z,19.04
2023-05-12T19:53:40.409Z,18.93
2023-05-12T19:56:09.590Z,18.82
2023-05-12T19:58:38.391Z,18.70
2023-05-12T20:01:08.598Z,18.59
2023-05-12T20:03:37.201Z,18.47
2023-05-12T20:06:07.940Z,18.34
2023-05-12T20:08:36.375Z,18.23
2023-05-12T20:11:04.904Z,18.09
2023-05-12T20:13:33.539Z,18.00
2023-05-12T20:16:02.054Z,17.91
2023-05-12T20:18:31.438Z,17.81
2023-05-12T20:21:00.140Z,17.72
2023-05-12T20:23:31.667Z,17.63
2023-05-12T20:26:01.480Z,17.57
2023-05-12T20:28:30.390Z,17.50
2023-05-12T20:30:59.249Z,17.42
2023-05-12T20:33:28.767Z,17.33
2023-05-12T20:35:57.652Z,17.27
2023-05-12T20:38:27.158Z,17.20
2023-05-12T20:40:57.079Z,17.14
2023-05-12T20:43:26.662Z,17.05
2023-05-12T20:45:55.603Z,16.98
2023-05-12T20:48:24.215Z,16.91
2023-05-12T20:50:54.239Z,16.84
2023-05-12T20:53:27.054Z,16.77
2023-05-12T20:55:57.844Z,16.71
2023-05-12T20:58:26.802Z,16.65
2023-05-12T21:00:55.483Z,16.60
2023-05-12T21:03:24.626Z,16.54
2023-05-12T21:05:53.394Z,16.47
2023-05-12T21:08:21.738Z,16.42
2023-05-12T21:10:50.330Z,16.37
2023-05-12T21:13:20.819Z,16.33
2023-05-12T21:15:49.189Z,16.28
2023-05-12T21:18:17.720Z,16.23
2023-05-12T21:20:47.198Z,16.17
2023-05-12T21:23:15.545Z,16.14
2023-05-12T21:25:44.246Z,16.10
2023-05-12T21:28:12.993Z,16.04
2023-05-12T21:30:42.705Z,16.00
2023-05-12T21:33:11.166Z,15.97
2023-05-12T21:35:39.649Z,15.93
2023-05-12T21:38:10.217Z,15.89
2023-05-12T21:40:39.144Z,15.83
2023-05-12T21:43:07.561Z,15.78
2023-05-12T21:45:36.023Z,15.72
2023-05-12T21:48:06.526Z,15.68
2023-05-12T21:50:34.951Z,15.62
2023-05-12T21:53:03.312Z,15.56
2023-05-12T21:55:31.658Z,15.51
2023-05-12T21:58:00.274Z,15.47
2023-05-12T22:00:32.746Z,15.43
2023-05-12T22:03:01.176Z,15.38
2023-05-12T22:05:31.955Z,15.33
2023-05-12T22:08:00.752Z,15.27
2023-05-12T22:10:30.485Z,15.22
2023-05-12T22:12:58.927Z,15.18
2023-05-12T22:15:27.748Z,15.14
2023-05-12T22:17:56.961Z,15.08
2023-05-12T22:20:26.880Z,15.04
2023-05-12T22:22:57.800Z,15.03
2023-05-12T22:25:27.100Z,14.99
2023-05-12T22:27:55.944Z,14.95
2023-05-12T22:30:25.103Z,14.93
2023-05-12T22:32:55.057Z,14.89
2023-05-12T22:35:24.354Z,14.86
2023-05-12T22:37:53.560Z,14.80
2023-05-12T22:40:23.940Z,14.75
2023-05-12T22:42:52.472Z,14.71
2023-05-12T22:45:22.377Z,14.75
2023-05-12T22:47:51.289Z,14.68
2023-05-12T22:50:20.911Z,14.64
2023-05-12T22:52:53.029Z,14.60
2023-05-12T22:55:27.355Z,14.57
2023-05-12T22:57:55.723Z,14.55
2023-05-12T23:00:24.583Z,14.51
2023-05-12T23:02:53.516Z,14.48
2023-05-12T23:05:24.649Z,14.43
2023-05-12T23:07:53.151Z,14.39
2023-05-12T23:10:24.847Z,14.35
2023-05-12T23:12:53.784Z,14.32
2023-05-12T23:15:25.856Z,14.29
2023-05-12T23:17:54.323Z,14.26
2023-05-12T23:20:22.932Z,14.23
2023-05-12T23:22:51.866Z,14.18
2023-05-12T23:25:21.277Z,14.15
2023-05-12T23:27:51.550Z,14.13
2023-05-12T23:30:20.452Z,14.09
2023-05-12T23:32:50.675Z,14.04
2023-05-12T23:35:19.485Z,14.01
2023-05-12T23:37:47.876Z,13.95
2023-05-12T23:40:16.297Z,13.93
2023-05-12T23:42:44.573Z,13.91
2023-05-12T23:45:15.818Z,13.87
2023-05-12T23:47:44.582Z,13.84
2023-05-12T23:50:13.252Z,13.83
2023-05-12T23:52:41.640Z,13.79
2023-05-12T23:55:11.674Z,13.77
2023-05-12T23:57:40.108Z,13.74
